createdAt,value
2022-09-09T00:02:21.813Z,97.05
2022-09-09T00:04:56.301Z,97.40
2022-09-09T00:07:49.667Z,97.44
2022-09-09T00:10:32.565Z,97.18
2022-09-09T00:13:07.340Z,97.14
2022-09-09T00:15:41.799Z,97.32
2022-09-09T00:18:29.177Z,97.58
2022-09-09T00:21:16.609Z,97.05
2022-09-09T00:23:55.911Z,97.47
2022-09-09T00:26:33.045Z,97.03
2022-09-09T00:29:13.126Z,96.74
2022-09-09T00:31:44.551Z,96.82
2022-09-09T00:34:20.785Z,96.49
2022-09-09T00:36:54.044Z,96.38
2022-09-09T00:39:34.156Z,95.88
2022-09-09T00:42:34.214Z,96.11
2022-09-09T00:45:35.828Z,95.89
2022-09-09T00:48:14.374Z,96.02
2022-09-09T00:50:56.710Z,96.02
2022-09-09T00:53:59.075Z,95.81
2022-09-09T00:57:03.965Z,95.88
2022-09-09T00:59:51.900Z,95.63
2022-09-09T01:02:47.190Z,96.08
2022-09-09T01:05:31.224Z,95.80
2022-09-09T01:08:06.722Z,95.92
2022-09-09T01:10:55.286Z,95.81
2022-09-09T01:13:34.671Z,95.85
2022-09-09T01:16:12.484Z,95.93
2022-09-09T01:18:50.616Z,96.20
2022-09-09T01:21:31.204Z,95.94
2022-09-09T01:24:09.349Z,96.02
2022-09-09T01:26:43.649Z,96.04
2022-09-09T01:29:18.239Z,96.07
2022-09-09T01:31:54.067Z,95.76
2022-09-09T01:34:32.805Z,95.70
2022-09-09T01:37:08.211Z,96.20
2022-09-09T01:39:43.869Z,96.07
2022-09-09T01:42:17.123Z,96.13
2022-09-09T01:44:48.495Z,96.20
2022-09-09T01:47:19.925Z,96.18
2022-09-09T01:49:51.403Z,96.38
2022-09-09T01:52:23.137Z,96.55
2022-09-09T01:54:54.707Z,96.55
2022-09-09T01:57:31.232Z,96.69
2022-09-09T02:00:12.796Z,96.54
2022-09-09T02:02:57.025Z,96.49
2022-09-09T02:05:45.413Z,96.53
2022-09-09T02:08:31.248Z,96.68
2022-09-09T02:11:09.311Z,96.80
2022-09-09T02:13:42.173Z,97.01
2022-09-09T02:16:40.136Z,96.98
2022-09-09T02:19:26.338Z,97.16
2022-09-09T02:22:00.777Z,96.92
2022-09-09T02:24:35.956Z,97.11
2022-09-09T02:27:09.832Z,96.90
2022-09-09T02:29:43.958Z,96.52
2022-09-09T02:32:18.811Z,96.57
2022-09-09T02:34:57.012Z,96.30
2022-09-09T02:37:36.262Z,96.38
2022-09-09T02:40:11.347Z,96.49
2022-09-09T02:42:46.267Z,95.92
2022-09-09T02:45:20.336Z,96.06
2022-09-09T02:48:07.135Z,96.15
2022-09-09T02:50:51.046Z,96.20
2022-09-09T02:53:31.804Z,95.28
2022-09-09T02:56:14.896Z,95.87
2022-09-09T02:58:47.150Z,95.94
2022-09-09T03:01:18.793Z,95.71
2022-09-09T03:03:50.292Z,95.66
2022-09-09T03:06:22.717Z,95.81
2022-09-09T03:08:55.285Z,95.62
2022-09-09T03:11:28.777Z,95.84
2022-09-09T03:14:00.200Z,95.52
2022-09-09T03:16:31.591Z,95.78
2022-09-09T03:19:03.044Z,95.79
2022-09-09T03:21:34.527Z,95.64
2022-09-09T03:24:07.521Z,95.77
2022-09-09T03:26:39.189Z,95.82
2022-09-09T03:29:10.670Z,95.88
2022-09-09T03:31:42.107Z,95.88
2022-09-09T03:34:14.622Z,95.99
2022-09-09T03:36:59.422Z,95.85
2022-09-09T03:39:31.081Z,95.78
2022-09-09T03:42:05.100Z,95.80
2022-09-09T03:44:36.523Z,96.18
2022-09-09T03:47:08.000Z,96.47
2022-09-09T03:49:39.308Z,96.31
2022-09-09T03:52:11.198Z,96.22
2022-09-09T03:54:43.373Z,96.79
2022-09-09T03:57:17.655Z,96.83
2022-09-09T03:59:49.025Z,97.14
2022-09-09T04:02:20.411Z,97.17
2022-09-09T04:04:51.847Z,97.19
2022-09-09T04:07:23.248Z,97.24
2022-09-09T04:09:55.580Z,97.22
2022-09-09T04:12:26.974Z,96.95
2022-09-09T04:14:58.409Z,97.00
2022-09-09T04:17:29.946Z,96.58
2022-09-09T04:20:02.400Z,96.83
2022-09-09T04:22:34.067Z,96.29
2022-09-09T04:25:06.972Z,96.58
2022-09-09T04:27:38.341Z,96.49
2022-09-09T04:30:11.117Z,96.23
2022-09-09T04:32:42.600Z,96.15
2022-09-09T04:35:14.303Z,96.18
2022-09-09T04:37:45.899Z,96.36
2022-09-09T04:40:17.456Z,96.34
2022-09-09T04:42:49.388Z,96.29
2022-09-09T04:45:20.877Z,95.86
2022-09-09T04:47:52.334Z,96.26
2022-09-09T04:50:23.847Z,96.46
2022-09-09T04:52:55.387Z,96.12
2022-09-09T04:55:26.710Z,96.22
2022-09-09T04:57:58.625Z,96.39
2022-09-09T05:00:30.003Z,96.55
2022-09-09T05:03:05.099Z,96.31
2022-09-09T05:05:36.819Z,96.55
2022-09-09T05:08:09.941Z,96.66
2022-09-09T05:10:42.801Z,97.21
2022-09-09T05:13:14.202Z,97.70
2022-09-09T05:15:53.920Z,97.36
2022-09-09T05:18:25.494Z,97.79
2022-09-09T05:21:01.262Z,98.06
2022-09-09T05:23:34.771Z,98.51
2022-09-09T05:26:07.217Z,98.07
2022-09-09T05:28:38.665Z,98.24
2022-09-09T05:31:13.762Z,98.50
2022-09-09T05:33:47.367Z,98.34
2022-09-09T05:36:21.359Z,98.11
2022-09-09T05:38:54.704Z,98.28
2022-09-09T05:41:26.501Z,98.14
2022-09-09T05:43:59.696Z,98.14
2022-09-09T05:46:31.349Z,98.26
2022-09-09T05:49:04.996Z,98.43
2022-09-09T05:51:36.426Z,98.22
2022-09-09T05:54:07.722Z,98.41
2022-09-09T05:56:39.072Z,98.72
2022-09-09T05:59:10.570Z,97.92
2022-09-09T06:01:42.057Z,98.25
2022-09-09T06:04:13.642Z,97.84
2022-09-09T06:06:45.082Z,97.90
2022-09-09T06:09:16.356Z,97.81
2022-09-09T06:11:47.682Z,97.66
2022-09-09T06:14:19.063Z,97.73
2022-09-09T06:16:50.493Z,97.83
2022-09-09T06:19:21.824Z,97.96
2022-09-09T06:21:53.251Z,98.46
2022-09-09T06:24:24.679Z,98.30
2022-09-09T06:26:56.826Z,98.33
2022-09-09T06:29:28.206Z,98.96
2022-09-09T06:31:59.929Z,98.36
2022-09-09T06:34:31.490Z,98.66
2022-09-09T06:37:02.982Z,98.70
2022-09-09T06:39:34.377Z,98.63
2022-09-09T06:42:05.948Z,98.55
2022-09-09T06:44:37.446Z,98.60
2022-09-09T06:47:08.932Z,98.45
2022-09-09T06:49:40.270Z,98.23
2022-09-09T06:52:11.668Z,98.11
2022-09-09T06:54:42.945Z,97.95
2022-09-09T06:57:36.361Z,98.21
2022-09-09T07:00:06.289Z,98.08
2022-09-09T07:02:40.089Z,97.76
2022-09-09T07:05:11.640Z,98.15
2022-09-09T07:07:44.112Z,98.39
2022-09-09T07:10:15.569Z,98.32
2022-09-09T07:12:52.662Z,98.28
2022-09-09T07:15:24.207Z,98.20
2022-09-09T07:17:55.605Z,98.17
2022-09-09T07:20:26.959Z,98.31
2022-09-09T07:22:59.408Z,98.17
2022-09-09T07:25:31.315Z,98.55
2022-09-09T07:28:02.930Z,98.64
2022-09-09T07:30:34.297Z,98.92
2022-09-09T07:33:05.850Z,98.82
2022-09-09T07:35:37.940Z,99.31
2022-09-09T07:38:10.420Z,98.99
2022-09-09T07:40:42.070Z,99.30
2022-09-09T07:43:17.250Z,98.86
2022-09-09T07:45:50.903Z,99.50
2022-09-09T07:48:22.330Z,98.58
2022-09-09T07:50:53.619Z,99.28
2022-09-09T07:53:24.991Z,98.70
2022-09-09T07:55:56.610Z,98.82
2022-09-09T07:58:27.952Z,98.97
2022-09-09T08:00:59.509Z,99.34
2022-09-09T08:03:30.807Z,98.46
2022-09-09T08:06:08.587Z,98.58
2022-09-09T08:08:42.084Z,97.32
2022-09-09T08:11:18.381Z,97.20
2022-09-09T08:13:54.332Z,97.21
2022-09-09T08:16:29.429Z,96.63
2022-09-09T08:19:00.879Z,96.51
2022-09-09T08:21:34.082Z,96.48
2022-09-09T08:24:08.882Z,96.54
2022-09-09T08:26:42.599Z,95.58
2022-09-09T08:29:14.753Z,96.16
2022-09-09T08:31:48.721Z,96.22
2022-09-09T08:34:20.917Z,96.13
2022-09-09T08:36:52.793Z,96.08
2022-09-09T08:39:24.293Z,95.56
2022-09-09T08:42:22.682Z,95.03
2022-09-09T08:44:59.691Z,95.51
2022-09-09T08:47:56.005Z,95.05
2022-09-09T08:50:30.829Z,94.57
2022-09-09T08:53:15.569Z,93.61
2022-09-09T08:55:50.698Z,92.58
2022-09-09T08:58:30.356Z,92.99
2022-09-09T09:01:09.687Z,92.42
2022-09-09T09:03:58.126Z,92.29
2022-09-09T09:06:34.420Z,92.33
2022-09-09T09:09:31.332Z,91.96
2022-09-09T09:12:10.478Z,92.25
2022-09-09T09:14:45.098Z,91.49
2022-09-09T09:17:23.000Z,90.94
2022-09-09T09:19:55.209Z,90.30
2022-09-09T09:22:52.081Z,89.47
2022-09-09T09:25:32.511Z,89.02
2022-09-09T09:28:20.179Z,88.63
2022-09-09T09:31:06.731Z,88.59
2022-09-09T09:33:50.615Z,88.96
2022-09-09T09:36:33.830Z,88.67
2022-09-09T09:42:05.132Z,88.14
2022-09-09T09:44:38.261Z,87.77
2022-09-09T09:47:14.313Z,86.69
2022-09-09T09:50:00.267Z,86.33
2022-09-09T09:52:33.191Z,86.74
2022-09-09T09:55:08.416Z,85.31
2022-09-09T09:57:40.094Z,85.19
2022-09-09T10:00:21.413Z,84.68
2022-09-09T10:02:53.652Z,84.18
2022-09-09T10:05:30.589Z,83.00
2022-09-09T10:08:13.120Z,82.90
2022-09-09T10:11:17.944Z,82.40
2022-09-09T10:13:59.309Z,83.01
2022-09-09T10:17:07.141Z,83.71
2022-09-09T10:19:41.927Z,84.14
2022-09-09T10:22:28.449Z,84.70
2022-09-09T10:25:17.616Z,84.07
2022-09-09T10:28:09.966Z,83.66
2022-09-09T10:31:17.321Z,83.62
2022-09-09T10:33:54.806Z,83.30
2022-09-09T10:36:30.658Z,81.79
2022-09-09T10:39:15.925Z,81.11
2022-09-09T10:42:06.734Z,79.44
2022-09-09T10:45:00.657Z,80.05
2022-09-09T10:47:40.753Z,79.53
2022-09-09T10:51:11.453Z,79.43
2022-09-09T10:54:05.958Z,80.65
2022-09-09T10:56:39.660Z,78.32
2022-09-09T10:59:18.380Z,77.33
2022-09-09T11:02:03.385Z,76.85
2022-09-09T11:04:43.930Z,76.07
2022-09-09T11:07:29.487Z,75.50
2022-09-09T11:10:07.310Z,74.03
2022-09-09T11:12:41.910Z,72.57
2022-09-09T11:15:23.804Z,72.13
2022-09-09T11:17:59.613Z,71.41
2022-09-09T11:20:33.062Z,70.98
2022-09-09T11:23:13.400Z,70.55
2022-09-09T11:26:01.059Z,69.96
2022-09-09T11:28:45.540Z,68.80
2022-09-09T11:31:46.224Z,67.91
2022-09-09T11:34:32.356Z,68.22
2022-09-09T11:37:18.253Z,67.54
2022-09-09T11:40:09.428Z,67.38
2022-09-09T11:42:41.044Z,66.07
2022-09-09T11:45:26.737Z,64.82
2022-09-09T11:48:00.509Z,64.19
2022-09-09T11:50:38.560Z,64.23
2022-09-09T11:53:23.446Z,63.98
2022-09-09T11:56:05.969Z,64.02
2022-09-09T11:58:57.649Z,63.02
2022-09-09T12:01:34.939Z,63.01
2022-09-09T12:04:12.173Z,62.92
2022-09-09T12:06:47.129Z,63.18
2022-09-09T12:09:43.442Z,63.86
2022-09-09T12:12:14.821Z,63.77
2022-09-09T12:15:20.856Z,64.11
2022-09-09T12:17:55.905Z,64.42
2022-09-09T12:20:32.389Z,64.91
2022-09-09T12:23:22.179Z,65.30
2022-09-09T12:26:09.827Z,66.47
2022-09-09T12:28:51.741Z,67.34
2022-09-09T12:31:47.549Z,67.82
2022-09-09T12:34:46.476Z,68.00
2022-09-09T12:37:28.226Z,68.88
2022-09-09T12:40:03.107Z,69.44
2022-09-09T12:42:41.499Z,70.28
2022-09-09T12:45:33.795Z,70.70
2022-09-09T12:48:09.405Z,70.52
2022-09-09T12:50:48.702Z,71.22
2022-09-09T12:53:27.215Z,72.18
2022-09-09T12:56:11.013Z,72.33
2022-09-09T12:58:47.850Z,72.98
2022-09-09T13:01:25.322Z,73.42
2022-09-09T13:03:57.718Z,73.83
2022-09-09T13:06:31.602Z,73.82
2022-09-09T13:09:03.876Z,74.38
2022-09-09T13:11:40.918Z,74.52
2022-09-09T13:14:35.638Z,74.51
2022-09-09T13:17:18.108Z,75.09
2022-09-09T13:19:53.464Z,75.20
2022-09-09T13:22:38.839Z,75.64
2022-09-09T13:25:10.958Z,75.27
2022-09-09T13:27:56.911Z,75.55
2022-09-09T13:30:30.424Z,75.82
2022-09-09T13:33:13.937Z,76.17
2022-09-09T13:36:04.347Z,76.25
2022-09-09T13:38:55.811Z,76.20
2022-09-09T13:41:33.533Z,76.28
2022-09-09T13:44:07.515Z,76.42
2022-09-09T13:46:41.429Z,76.54
2022-09-09T13:49:12.717Z,76.84
2022-09-09T13:51:47.852Z,76.83
2022-09-09T13:54:21.122Z,77.01
2022-09-09T13:56:52.478Z,78.27
2022-09-09T13:59:30.713Z,77.96
2022-09-09T14:02:14.942Z,78.67
2022-09-09T14:04:46.378Z,78.89
2022-09-09T14:07:19.728Z,79.77
2022-09-09T14:09:52.691Z,80.54
2022-09-09T14:12:24.120Z,81.35
2022-09-09T14:14:55.391Z,82.30
2022-09-09T14:17:32.071Z,83.29
2022-09-09T14:20:08.860Z,84.71
2022-09-09T14:22:40.263Z,85.30
2022-09-09T14:25:14.315Z,86.05
2022-09-09T14:27:46.843Z,86.16
2022-09-09T14:30:18.265Z,86.87
2022-09-09T14:32:49.678Z,86.96
2022-09-09T14:35:21.021Z,86.99
2022-09-09T14:37:52.712Z,87.49
2022-09-09T14:40:24.035Z,87.96
2022-09-09T14:42:56.662Z,88.01
2022-09-09T14:45:28.048Z,87.65
2022-09-09T14:48:00.412Z,88.97
2022-09-09T14:50:31.898Z,88.29
2022-09-09T14:53:03.344Z,88.34
2022-09-09T14:55:34.806Z,88.54
2022-09-09T14:58:07.148Z,88.28
2022-09-09T15:00:38.417Z,88.27
2022-09-09T15:03:11.737Z,88.47
2022-09-09T15:05:43.016Z,88.53
2022-09-09T15:08:16.975Z,88.46
2022-09-09T15:10:48.334Z,88.03
2022-09-09T15:13:19.613Z,88.14
2022-09-09T15:15:51.160Z,87.69
2022-09-09T15:18:22.689Z,87.78
2022-09-09T15:20:54.194Z,87.36
2022-09-09T15:23:25.536Z,87.00
2022-09-09T15:25:57.444Z,86.51
2022-09-09T15:28:29.170Z,87.05
2022-09-09T15:31:07.779Z,87.22
2022-09-09T15:33:39.397Z,87.92
2022-09-09T15:36:19.622Z,87.42
2022-09-09T15:38:52.421Z,86.74
2022-09-09T15:41:24.547Z,86.64
2022-09-09T15:44:00.758Z,86.39
2022-09-09T15:46:38.162Z,85.92
2022-09-09T15:49:12.663Z,86.33
2022-09-09T15:51:52.388Z,86.09
2022-09-09T15:54:25.161Z,86.62
2022-09-09T15:56:59.868Z,86.49
2022-09-09T15:59:32.389Z,86.71
2022-09-09T16:02:04.055Z,86.34
2022-09-09T16:04:35.487Z,86.83
2022-09-09T16:07:07.226Z,86.50
2022-09-09T16:09:40.178Z,86.57
2022-09-09T16:12:13.082Z,86.78
2022-09-09T16:14:46.272Z,86.86
2022-09-09T16:17:17.629Z,87.15
2022-09-09T16:19:48.964Z,87.02
2022-09-09T16:22:20.551Z,87.04
2022-09-09T16:24:52.106Z,87.23
2022-09-09T16:27:24.171Z,87.27
2022-09-09T16:29:55.506Z,87.11
2022-09-09T16:32:27.074Z,87.34
2022-09-09T16:34:58.511Z,87.68
2022-09-09T16:37:30.435Z,87.28
2022-09-09T16:40:04.277Z,87.80
2022-09-09T16:42:39.418Z,87.95
2022-09-09T16:45:14.330Z,87.93
2022-09-09T16:47:45.655Z,87.66
2022-09-09T16:50:17.283Z,88.12
2022-09-09T16:52:48.729Z,88.31
2022-09-09T16:55:23.278Z,88.20
2022-09-09T16:57:54.916Z,88.49
2022-09-09T17:00:27.986Z,88.47
2022-09-09T17:02:59.849Z,88.75
2022-09-09T17:05:31.226Z,88.88
2022-09-09T17:08:02.570Z,88.85
2022-09-09T17:10:34.290Z,88.89
2022-09-09T17:13:05.670Z,89.04
2022-09-09T17:15:43.557Z,89.23
2022-09-09T17:18:14.933Z,89.23
2022-09-09T17:20:47.457Z,88.85
2022-09-09T17:23:18.886Z,89.38
2022-09-09T17:25:59.566Z,89.34
2022-09-09T17:28:32.149Z,89.55
2022-09-09T17:31:05.654Z,89.47
2022-09-09T17:33:42.593Z,89.94
2022-09-09T17:36:27.035Z,90.20
2022-09-09T17:39:00.639Z,90.30
2022-09-09T17:41:38.577Z,90.24
2022-09-09T17:44:10.692Z,90.26
2022-09-09T17:46:44.146Z,90.67
2022-09-09T17:49:18.343Z,90.71
2022-09-09T17:51:49.666Z,90.90
2022-09-09T17:54:21.416Z,90.75
2022-09-09T17:56:53.285Z,90.71
2022-09-09T17:59:26.011Z,91.20
2022-09-09T18:01:57.882Z,91.00
2022-09-09T18:04:29.476Z,90.72
2022-09-09T18:07:00.831Z,90.81
2022-09-09T18:09:32.528Z,90.81
2022-09-09T18:12:04.069Z,90.76
2022-09-09T18:14:35.462Z,90.79
2022-09-09T18:17:06.839Z,90.62
2022-09-09T18:19:38.180Z,91.04
2022-09-09T18:22:09.565Z,91.03
2022-09-09T18:24:41.410Z,91.27
2022-09-09T18:27:12.873Z,91.01
2022-09-09T18:29:44.534Z,91.46
2022-09-09T18:32:17.043Z,91.05
2022-09-09T18:34:51.571Z,91.71
2022-09-09T18:37:26.184Z,91.52
2022-09-09T18:39:57.572Z,91.70
2022-09-09T18:42:28.898Z,91.42
2022-09-09T18:45:00.636Z,91.68
2022-09-09T18:47:32.036Z,91.59
2022-09-09T18:50:04.493Z,91.54
2022-09-09T18:52:35.831Z,91.46
2022-09-09T18:55:09.010Z,91.22
2022-09-09T18:57:41.110Z,91.48
2022-09-09T19:00:12.820Z,91.86
2022-09-09T19:02:44.306Z,91.43
2022-09-09T19:05:15.679Z,91.26
2022-09-09T19:07:47.076Z,91.38
2022-09-09T19:10:19.334Z,91.26
2022-09-09T19:12:51.181Z,91.17
2022-09-09T19:15:23.011Z,91.24
2022-09-09T19:17:56.403Z,91.16
2022-09-09T19:20:27.854Z,91.29
2022-09-09T19:23:00.100Z,91.99
2022-09-09T19:25:37.387Z,91.52
2022-09-09T19:28:08.778Z,91.56
2022-09-09T19:30:40.258Z,91.76
2022-09-09T19:33:12.042Z,91.76
2022-09-09T19:35:43.418Z,91.79
2022-09-09T19:38:14.806Z,91.99
2022-09-09T19:40:46.145Z,91.73
2022-09-09T19:43:17.496Z,91.98
2022-09-09T19:46:06.565Z,91.79
2022-09-09T19:48:41.104Z,91.52
2022-09-09T19:51:17.701Z,91.85
2022-09-09T19:53:58.058Z,91.96
2022-09-09T19:56:31.076Z,91.96
2022-09-09T19:59:03.868Z,92.29
2022-09-09T20:01:41.566Z,92.38
2022-09-09T20:04:14.349Z,92.64
2022-09-09T20:06:46.421Z,92.89
2022-09-09T20:09:18.304Z,93.30
2022-09-09T20:11:50.310Z,92.87
2022-09-09T20:14:21.694Z,93.15
2022-09-09T20:16:53.102Z,93.19
2022-09-09T20:19:24.422Z,93.08
2022-09-09T20:21:56.014Z,93.01
2022-09-09T20:24:27.476Z,92.99
2022-09-09T20:26:58.883Z,93.25
2022-09-09T20:29:30.230Z,92.99
2022-09-09T20:32:01.753Z,93.30
2022-09-09T20:34:33.066Z,93.40
2022-09-09T20:37:05.810Z,93.46
2022-09-09T20:39:37.310Z,93.54
2022-09-09T20:42:08.683Z,93.43
2022-09-09T20:44:39.986Z,93.22
2022-09-09T20:47:11.419Z,92.95
2022-09-09T20:49:43.008Z,93.17
2022-09-09T20:52:15.161Z,93.56
2022-09-09T20:54:47.393Z,93.49
2022-09-09T20:57:21.994Z,93.42
2022-09-09T20:59:53.390Z,94.10
2022-09-09T21:02:24.860Z,94.24
2022-09-09T21:04:56.334Z,94.34
2022-09-09T21:07:29.137Z,94.32
2022-09-09T21:10:01.978Z,94.99
2022-09-09T21:12:33.313Z,94.53
2022-09-09T21:15:05.194Z,94.55
2022-09-09T21:17:36.674Z,94.84
2022-09-09T21:20:08.952Z,94.92
2022-09-09T21:22:40.621Z,94.58
2022-09-09T21:25:11.908Z,95.11
2022-09-09T21:27:43.180Z,94.94
2022-09-09T21:30:14.536Z,94.83
2022-09-09T21:32:45.906Z,94.93
2022-09-09T21:35:17.298Z,94.38
2022-09-09T21:37:49.719Z,94.78
2022-09-09T21:40:22.371Z,95.06
2022-09-09T21:42:53.633Z,94.56
2022-09-09T21:45:26.904Z,94.66
2022-09-09T21:47:58.247Z,94.74
2022-09-09T21:50:29.586Z,95.08
2022-09-09T21:53:00.896Z,95.00
2022-09-09T21:55:36.866Z,95.03
2022-09-09T21:58:11.982Z,95.05
2022-09-09T22:00:45.681Z,94.85
2022-09-09T22:03:17.483Z,95.08
2022-09-09T22:05:53.713Z,94.85
2022-09-09T22:08:25.339Z,95.01
2022-09-09T22:10:57.611Z,95.29
2022-09-09T22:13:29.942Z,94.88
2022-09-09T22:16:04.173Z,95.29
2022-09-09T22:18:35.966Z,95.36
2022-09-09T22:21:14.932Z,95.29
2022-09-09T22:23:52.415Z,95.35
2022-09-09T22:26:25.361Z,95.35
2022-09-09T22:28:57.301Z,95.52
2022-09-09T22:31:28.699Z,95.41
2022-09-09T22:34:00.198Z,95.46
2022-09-09T22:36:31.906Z,95.47
2022-09-09T22:39:03.830Z,95.67
2022-09-09T22:41:35.130Z,96.31
2022-09-09T22:44:09.150Z,96.19
2022-09-09T22:46:40.697Z,95.95
2022-09-09T22:49:12.466Z,96.44
2022-09-09T22:51:44.209Z,96.23
2022-09-09T22:54:21.440Z,96.14
2022-09-09T22:56:52.968Z,96.08
2022-09-09T22:59:24.335Z,96.35
2022-09-09T23:01:57.381Z,96.18
2022-09-09T23:04:29.023Z,96.20
2022-09-09T23:07:00.869Z,96.37
2022-09-09T23:09:32.305Z,95.94
2022-09-09T23:12:04.430Z,96.49
2022-09-09T23:14:35.800Z,95.76
2022-09-09T23:17:07.289Z,96.19
2022-09-09T23:19:39.978Z,95.84
2022-09-09T23:22:11.441Z,95.75
2022-09-09T23:24:42.974Z,95.99
2022-09-09T23:27:14.462Z,95.90
2022-09-09T23:29:48.244Z,95.64
2022-09-09T23:32:19.931Z,95.53
2022-09-09T23:34:51.658Z,96.00
2022-09-09T23:37:23.031Z,95.83
2022-09-09T23:39:54.376Z,95.33
2022-09-09T23:42:26.877Z,95.23
2022-09-09T23:44:58.249Z,95.47
2022-09-09T23:47:29.541Z,95.47
2022-09-09T23:50:01.561Z,95.41
2022-09-09T23:52:33.065Z,95.52
2022-09-09T23:55:05.566Z,95.26
2022-09-09T23:57:36.914Z,95.11
